createdAt,value
2018-07-06T00:00:07.602Z,74.20
2018-07-06T00:01:07.461Z,75.50
2018-07-06T00:02:07.477Z,79.30
2018-07-06T00:03:07.484Z,79.00
2018-07-06T00:04:07.508Z,77.20
2018-07-06T00:05:07.573Z,76.90
2018-07-06T00:06:07.537Z,85.00
2018-07-06T00:07:07.549Z,76.90
2018-07-06T00:08:07.558Z,87.40
2018-07-06T00:09:07.583Z,74.90
2018-07-06T00:10:07.771Z,82.80
2018-07-06T00:11:07.619Z,77.10
2018-07-06T00:12:07.665Z,88.80
2018-07-06T00:13:07.632Z,85.00
2018-07-06T00:14:07.643Z,85.40
2018-07-06T00:15:07.747Z,84.70
2018-07-06T00:16:07.667Z,89.10
2018-07-06T00:17:07.667Z,84.60
2018-07-06T00:18:07.702Z,83.00
2018-07-06T00:19:07.707Z,81.10
2018-07-06T00:20:07.770Z,78.40
2018-07-06T00:21:07.727Z,83.00
2018-07-06T00:22:07.752Z,81.70
2018-07-06T00:23:07.755Z,82.00
2018-07-06T00:24:07.865Z,82.70
2018-07-06T00:25:07.789Z,86.60
2018-07-06T00:26:07.804Z,78.00
2018-07-06T00:27:07.824Z,87.80
2018-07-06T00:28:07.823Z,83.00
2018-07-06T00:29:07.893Z,86.30
2018-07-06T00:30:07.862Z,80.10
2018-07-06T00:31:07.974Z,84.10
2018-07-06T00:32:07.893Z,85.80
2018-07-06T00:33:07.905Z,78.00
2018-07-06T00:34:07.906Z,84.60
2018-07-06T00:35:07.970Z,80.30
2018-07-06T00:36:07.931Z,79.90
2018-07-06T00:37:08.101Z,77.60
2018-07-06T00:38:07.961Z,90.30
2018-07-06T00:39:07.985Z,84.50
2018-07-06T00:40:07.993Z,80.70
2018-07-06T00:41:08.007Z,79.20
2018-07-06T00:42:08.118Z,82.30
2018-07-06T00:43:08.054Z,81.10
2018-07-06T00:44:08.033Z,75.40
2018-07-06T00:45:08.064Z,79.60
2018-07-06T00:46:08.078Z,77.30
2018-07-06T00:47:08.248Z,74.20
2018-07-06T00:48:08.099Z,79.20
2018-07-06T00:49:08.154Z,75.70
2018-07-06T00:50:08.120Z,79.20
2018-07-06T00:51:08.131Z,86.20
2018-07-06T00:52:08.366Z,79.40
2018-07-06T00:53:08.170Z,81.10
2018-07-06T00:54:08.187Z,76.90
2018-07-06T00:55:08.193Z,89.70
2018-07-06T00:56:08.197Z,89.20
2018-07-06T00:57:08.362Z,85.40
2018-07-06T00:58:08.243Z,81.90
2018-07-06T00:59:08.268Z,85.10
2018-07-06T01:00:08.269Z,78.50
2018-07-06T01:01:08.285Z,90.80
2018-07-06T01:02:08.485Z,88.60
2018-07-06T01:03:08.420Z,83.80
2018-07-06T01:04:08.317Z,91.90
2018-07-06T01:05:08.447Z,85.20
2018-07-06T01:06:08.331Z,80.40
2018-07-06T01:07:08.547Z,83.70
2018-07-06T01:08:08.362Z,87.40
2018-07-06T01:09:08.392Z,82.20
2018-07-06T01:10:08.440Z,84.00
2018-07-06T01:11:08.404Z,85.10
2018-07-06T01:12:08.532Z,76.40
2018-07-06T01:13:08.440Z,87.00
2018-07-06T01:14:08.457Z,86.40
2018-07-06T01:15:08.465Z,95.60
2018-07-06T01:16:08.473Z,87.80
2018-07-06T01:17:08.641Z,88.90
2018-07-06T01:18:08.487Z,85.70
2018-07-06T01:19:08.511Z,86.20
2018-07-06T01:20:08.530Z,89.00
2018-07-06T01:21:08.536Z,87.20
2018-07-06T01:22:08.744Z,91.20
2018-07-06T01:23:08.550Z,81.40
2018-07-06T01:24:08.592Z,87.90
2018-07-06T01:25:08.581Z,82.50
2018-07-06T01:26:08.664Z,81.60
2018-07-06T01:27:08.774Z,80.60
2018-07-06T01:28:08.653Z,84.50
2018-07-06T01:29:08.650Z,81.00
2018-07-06T01:30:08.661Z,84.20
2018-07-06T01:31:08.659Z,79.70
2018-07-06T01:32:08.683Z,83.10
2018-07-06T01:33:08.846Z,84.50
2018-07-06T01:34:08.696Z,90.40
2018-07-06T01:35:08.728Z,86.10
2018-07-06T01:36:08.740Z,87.10
2018-07-06T01:37:08.764Z,84.20
2018-07-06T01:38:08.913Z,88.00
2018-07-06T01:39:08.782Z,80.50
2018-07-06T01:40:08.778Z,81.40
2018-07-06T01:41:08.808Z,90.80
2018-07-06T01:42:08.819Z,84.00
2018-07-06T01:43:08.984Z,85.30
2018-07-06T01:44:08.841Z,87.50
2018-07-06T01:45:08.852Z,84.40
2018-07-06T01:46:08.911Z,79.00
2018-07-06T01:47:08.871Z,87.60
2018-07-06T01:48:08.900Z,90.20
2018-07-06T01:49:09.057Z,90.10
2018-07-06T01:50:08.929Z,84.60
2018-07-06T01:51:08.933Z,86.90
2018-07-06T01:52:08.962Z,91.90
2018-07-06T01:53:08.947Z,86.20
2018-07-06T01:54:09.126Z,82.80
2018-07-06T01:55:08.989Z,84.50
2018-07-06T01:56:09.001Z,91.70
2018-07-06T01:57:09.021Z,90.10
2018-07-06T01:58:09.012Z,89.60
2018-07-06T01:59:09.076Z,92.90
2018-07-06T02:00:09.048Z,88.00
2018-07-06T02:01:09.067Z,83.60
2018-07-06T02:02:09.085Z,83.10
2018-07-06T02:03:09.083Z,85.50
2018-07-06T02:04:09.191Z,84.40
2018-07-06T02:05:09.107Z,88.50
2018-07-06T02:06:09.126Z,90.50
2018-07-06T02:07:09.137Z,98.60
2018-07-06T02:08:09.160Z,103.00
2018-07-06T02:09:09.324Z,93.00
2018-07-06T02:10:09.183Z,95.00
2018-07-06T02:11:09.176Z,104.00
2018-07-06T02:12:09.196Z,101.20
2018-07-06T02:13:09.213Z,112.60
2018-07-06T02:14:09.321Z,109.70
2018-07-06T02:15:09.254Z,99.50
2018-07-06T02:16:09.255Z,99.90
2018-07-06T02:17:09.257Z,99.80
2018-07-06T02:18:09.272Z,105.00
2018-07-06T02:19:09.447Z,97.50
2018-07-06T02:20:09.316Z,106.50
2018-07-06T02:21:09.308Z,98.00
2018-07-06T02:22:09.317Z,98.50
2018-07-06T02:23:09.350Z,107.90
2018-07-06T02:24:09.505Z,104.50
2018-07-06T02:25:09.359Z,102.90
2018-07-06T02:26:09.398Z,108.10
2018-07-06T02:27:09.392Z,118.30
2018-07-06T02:28:09.408Z,121.00
2018-07-06T02:29:09.418Z,119.10
2018-07-06T02:30:09.653Z,119.60
2018-07-06T02:31:09.444Z,112.50
2018-07-06T02:32:09.462Z,119.30
2018-07-06T02:33:09.473Z,113.40
2018-07-06T02:34:09.488Z,107.10
2018-07-06T02:35:09.654Z,108.50
2018-07-06T02:36:09.507Z,116.80
2018-07-06T02:37:09.530Z,127.20
2018-07-06T02:38:09.536Z,127.60
2018-07-06T02:39:09.547Z,125.40
2018-07-06T02:40:09.568Z,120.70
2018-07-06T02:41:09.659Z,135.80
2018-07-06T02:42:09.592Z,132.80
2018-07-06T02:43:09.614Z,139.10
2018-07-06T02:44:09.659Z,139.00
2018-07-06T02:45:09.609Z,131.00
2018-07-06T02:46:09.749Z,120.70
2018-07-06T02:47:09.669Z,122.80
2018-07-06T02:48:09.680Z,118.30
2018-07-06T02:49:09.690Z,114.40
2018-07-06T02:50:09.682Z,118.00
2018-07-06T02:51:09.692Z,114.70
2018-07-06T02:52:09.809Z,121.10
2018-07-06T02:53:09.737Z,120.50
2018-07-06T02:54:09.726Z,122.10
2018-07-06T02:55:09.787Z,116.10
2018-07-06T02:56:09.781Z,115.30
2018-07-06T02:57:09.887Z,112.90
2018-07-06T02:58:09.799Z,113.00
2018-07-06T02:59:09.814Z,115.30
2018-07-06T03:00:09.818Z,108.60
2018-07-06T03:01:09.841Z,119.00
2018-07-06T03:02:09.842Z,113.80
2018-07-06T03:03:09.994Z,122.30
2018-07-06T03:04:09.874Z,130.40
2018-07-06T03:05:09.873Z,115.60
2018-07-06T03:06:09.885Z,120.90
2018-07-06T03:07:09.889Z,118.90
2018-07-06T03:08:10.030Z,117.50
2018-07-06T03:09:09.928Z,120.90
2018-07-06T03:10:09.948Z,116.90
2018-07-06T03:11:09.966Z,111.70
2018-07-06T03:12:09.965Z,124.10
2018-07-06T03:13:09.970Z,119.30
2018-07-06T03:14:10.076Z,122.80
2018-07-06T03:15:10.007Z,133.40
2018-07-06T03:16:10.027Z,130.70
2018-07-06T03:17:10.034Z,136.10
2018-07-06T03:18:10.141Z,116.60
2018-07-06T03:19:10.043Z,120.00
2018-07-06T03:20:10.077Z,123.70
2018-07-06T03:21:10.078Z,127.70
2018-07-06T03:22:10.082Z,126.80
2018-07-06T03:23:10.201Z,126.20
2018-07-06T03:24:10.146Z,119.70
2018-07-06T03:25:10.184Z,119.90
2018-07-06T03:26:10.134Z,121.60
2018-07-06T03:27:10.162Z,126.30
2018-07-06T03:28:10.313Z,129.10
2018-07-06T03:29:10.193Z,123.40
2018-07-06T03:30:10.226Z,129.20
2018-07-06T03:31:10.199Z,132.40
2018-07-06T03:32:10.222Z,132.10
2018-07-06T03:33:10.323Z,141.20
2018-07-06T03:34:10.237Z,142.30
2018-07-06T03:35:10.258Z,140.60
2018-07-06T03:36:10.257Z,148.90
2018-07-06T03:37:10.283Z,149.80
2018-07-06T03:38:10.409Z,132.50
2018-07-06T03:39:10.304Z,140.90
2018-07-06T03:40:10.330Z,133.40
2018-07-06T03:41:10.327Z,137.20
2018-07-06T03:42:10.342Z,133.70
2018-07-06T03:43:10.448Z,142.10
2018-07-06T03:44:10.384Z,141.20
2018-07-06T03:45:10.367Z,142.30
2018-07-06T03:46:10.397Z,148.50
2018-07-06T03:47:10.415Z,146.70
2018-07-06T03:48:10.556Z,135.60
2018-07-06T03:49:10.440Z,132.70
2018-07-06T03:50:10.439Z,132.60
2018-07-06T03:51:10.471Z,128.10
2018-07-06T03:52:10.485Z,140.40
2018-07-06T03:53:10.580Z,146.60
2018-07-06T03:54:10.509Z,142.70
2018-07-06T03:55:10.510Z,140.80
2018-07-06T03:56:10.519Z,139.50
2018-07-06T03:57:10.531Z,142.30
2018-07-06T03:58:10.532Z,151.40
2018-07-06T03:59:10.645Z,138.60
2018-07-06T04:00:10.582Z,143.60
2018-07-06T04:01:10.613Z,146.00
2018-07-06T04:02:10.580Z,136.00
2018-07-06T04:03:10.629Z,151.10
2018-07-06T04:04:10.734Z,144.20
2018-07-06T04:05:10.641Z,140.80
2018-07-06T04:06:10.636Z,136.10
2018-07-06T04:07:10.649Z,136.80
2018-07-06T04:08:10.657Z,125.00
2018-07-06T04:09:10.800Z,133.80
2018-07-06T04:10:10.682Z,136.30
2018-07-06T04:11:10.714Z,133.80
2018-07-06T04:12:10.725Z,128.80
2018-07-06T04:13:10.727Z,127.60
2018-07-06T04:14:10.753Z,133.10
2018-07-06T04:15:10.816Z,131.40
2018-07-06T04:16:10.774Z,124.70
2018-07-06T04:17:10.775Z,121.80
2018-07-06T04:18:10.787Z,125.80
2018-07-06T04:19:10.920Z,124.20
2018-07-06T04:20:10.832Z,125.40
2018-07-06T04:21:10.852Z,126.10
2018-07-06T04:22:10.859Z,133.60
2018-07-06T04:23:10.859Z,127.10
2018-07-06T04:24:10.927Z,114.50
2018-07-06T04:25:10.869Z,134.60
2018-07-06T04:26:10.999Z,135.60
2018-07-06T04:27:10.926Z,109.60
2018-07-06T04:28:10.919Z,128.50
2018-07-06T04:29:10.930Z,136.20
2018-07-06T04:30:10.958Z,139.30
2018-07-06T04:31:11.106Z,144.70
2018-07-06T04:32:10.958Z,161.40
2018-07-06T04:33:10.968Z,150.70
2018-07-06T04:34:10.990Z,147.80
2018-07-06T04:35:10.997Z,139.20
2018-07-06T04:36:11.074Z,139.40
2018-07-06T04:37:11.045Z,138.90
2018-07-06T04:38:11.055Z,124.70
2018-07-06T04:39:11.047Z,124.90
2018-07-06T04:40:11.176Z,117.50
2018-07-06T04:41:11.084Z,127.90
2018-07-06T04:42:11.100Z,143.90
2018-07-06T04:43:11.104Z,131.00
2018-07-06T04:44:11.172Z,137.10
2018-07-06T04:45:11.225Z,127.80
2018-07-06T04:46:11.145Z,122.30
2018-07-06T04:47:11.161Z,120.80
2018-07-06T04:48:11.172Z,127.50
2018-07-06T04:49:11.170Z,124.50
2018-07-06T04:50:11.338Z,119.40
2018-07-06T04:51:11.201Z,114.60
2018-07-06T04:52:11.202Z,128.60
2018-07-06T04:53:11.245Z,123.50
2018-07-06T04:54:11.247Z,130.50
2018-07-06T04:55:11.456Z,133.30
2018-07-06T04:56:11.288Z,131.20
2018-07-06T04:57:11.271Z,134.60
2018-07-06T04:58:11.303Z,136.40
2018-07-06T04:59:11.293Z,135.00
2018-07-06T05:00:11.453Z,129.80
2018-07-06T05:01:11.318Z,130.90
2018-07-06T05:02:11.343Z,141.00
2018-07-06T05:03:11.339Z,138.10
2018-07-06T05:04:11.357Z,126.10
2018-07-06T05:05:11.380Z,119.90
2018-07-06T05:06:11.493Z,123.60
2018-07-06T05:07:11.392Z,123.70
2018-07-06T05:08:11.460Z,141.70
2018-07-06T05:09:11.439Z,134.60
2018-07-06T05:10:11.428Z,143.50
2018-07-06T05:11:11.497Z,123.80
2018-07-06T05:12:11.553Z,133.30
2018-07-06T05:13:11.463Z,137.70
2018-07-06T05:14:11.495Z,160.70
2018-07-06T05:15:11.512Z,145.00
2018-07-06T05:16:11.561Z,143.90
2018-07-06T05:17:11.690Z,145.10
2018-07-06T05:18:11.526Z,149.20
2018-07-06T05:19:11.574Z,150.50
2018-07-06T05:20:11.570Z,161.60
2018-07-06T05:21:11.558Z,154.50
2018-07-06T05:22:11.573Z,126.10
2018-07-06T05:23:11.698Z,137.90
2018-07-06T05:24:11.607Z,135.20
2018-07-06T05:25:11.611Z,129.90
2018-07-06T05:26:11.648Z,138.90
2018-07-06T05:27:11.658Z,127.40
2018-07-06T05:28:11.755Z,134.40
2018-07-06T05:29:11.680Z,132.60
2018-07-06T05:30:11.682Z,129.30
2018-07-06T05:31:11.694Z,124.80
2018-07-06T05:32:11.697Z,139.80
2018-07-06T05:33:11.726Z,139.00
2018-07-06T05:34:11.834Z,147.50
2018-07-06T05:35:11.744Z,134.30
2018-07-06T05:36:11.750Z,126.60
2018-07-06T05:37:11.761Z,121.80
2018-07-06T05:38:11.775Z,130.60
2018-07-06T05:39:11.887Z,130.20
2018-07-06T05:40:11.806Z,124.80
2018-07-06T05:41:11.816Z,165.00
2018-07-06T05:42:11.822Z,158.10
2018-07-06T05:43:11.850Z,145.00
2018-07-06T05:44:11.843Z,156.70
2018-07-06T05:45:11.959Z,170.80
2018-07-06T05:46:11.862Z,159.30
2018-07-06T05:47:11.890Z,146.20
2018-07-06T05:48:11.907Z,154.60
2018-07-06T05:49:11.897Z,142.50
2018-07-06T05:50:11.921Z,144.20
2018-07-06T05:51:12.043Z,156.30
2018-07-06T05:52:11.943Z,149.80
2018-07-06T05:53:11.965Z,138.60
2018-07-06T05:54:11.983Z,135.90
2018-07-06T05:55:12.005Z,137.10
2018-07-06T05:56:12.082Z,154.90
2018-07-06T05:57:12.007Z,145.50
2018-07-06T05:58:12.029Z,150.40
2018-07-06T05:59:12.062Z,131.00
2018-07-06T06:00:12.057Z,140.20
2018-07-06T06:01:12.153Z,134.70
2018-07-06T06:02:12.079Z,141.30
2018-07-06T06:03:12.098Z,127.10
2018-07-06T06:04:12.084Z,126.70
2018-07-06T06:05:12.089Z,137.50
2018-07-06T06:06:12.230Z,131.20
2018-07-06T06:07:12.142Z,142.00
2018-07-06T06:08:12.159Z,137.90
2018-07-06T06:09:12.159Z,144.10
2018-07-06T06:10:12.157Z,130.30
2018-07-06T06:11:12.213Z,150.00
2018-07-06T06:12:12.208Z,152.40
2018-07-06T06:13:12.202Z,144.50
2018-07-06T06:14:12.218Z,146.00
2018-07-06T06:15:12.240Z,130.70
2018-07-06T06:16:12.341Z,133.80
2018-07-06T06:17:12.248Z,129.10
2018-07-06T06:18:12.251Z,132.20
2018-07-06T06:19:12.297Z,158.10
2018-07-06T06:20:12.298Z,151.50
2018-07-06T06:21:12.401Z,141.10
2018-07-06T06:22:12.313Z,140.30
2018-07-06T06:23:12.323Z,132.60
2018-07-06T06:24:12.348Z,130.60
2018-07-06T06:25:12.352Z,139.60
2018-07-06T06:26:12.471Z,147.90
2018-07-06T06:27:12.361Z,144.30
2018-07-06T06:28:12.393Z,135.60
2018-07-06T06:29:12.391Z,138.00
2018-07-06T06:30:12.389Z,148.40
2018-07-06T06:31:12.508Z,160.70
2018-07-06T06:32:12.437Z,152.60
2018-07-06T06:33:12.504Z,149.10
2018-07-06T06:34:12.572Z,145.00
2018-07-06T06:35:12.466Z,150.30
2018-07-06T06:36:12.590Z,141.10
2018-07-06T06:37:12.479Z,154.50
2018-07-06T06:38:12.513Z,142.00
2018-07-06T06:39:12.517Z,145.30
2018-07-06T06:40:12.532Z,158.50
2018-07-06T06:41:12.601Z,152.20
2018-07-06T06:42:12.539Z,158.80
2018-07-06T06:43:12.567Z,157.10
2018-07-06T06:44:12.587Z,152.60
2018-07-06T06:45:12.589Z,151.20
2018-07-06T06:46:12.707Z,138.40
2018-07-06T06:47:12.610Z,141.70
2018-07-06T06:48:12.634Z,155.80
2018-07-06T06:49:12.637Z,141.80
2018-07-06T06:50:12.643Z,129.60
2018-07-06T06:51:12.713Z,146.20
2018-07-06T06:52:12.766Z,180.60
2018-07-06T06:53:12.687Z,150.00
2018-07-06T06:54:12.700Z,137.30
2018-07-06T06:55:12.697Z,133.10
2018-07-06T06:56:12.704Z,150.40
2018-07-06T06:57:12.728Z,150.80
2018-07-06T06:58:12.831Z,140.00
2018-07-06T06:59:12.763Z,155.60
2018-07-06T07:00:12.766Z,139.70
2018-07-06T07:01:12.786Z,146.30
2018-07-06T07:02:12.795Z,142.60
2018-07-06T07:03:12.899Z,132.90
2018-07-06T07:04:12.819Z,130.20
2018-07-06T07:05:12.943Z,148.00
2018-07-06T07:06:12.841Z,151.00
2018-07-06T07:07:12.854Z,131.00
2018-07-06T07:08:12.951Z,131.50
2018-07-06T07:09:12.859Z,145.60
2018-07-06T07:10:12.890Z,133.80
2018-07-06T07:11:12.906Z,141.40
2018-07-06T07:12:12.908Z,126.90
2018-07-06T07:13:13.439Z,144.90
2018-07-06T07:14:13.074Z,154.50
2018-07-06T07:15:12.942Z,159.60
2018-07-06T07:16:12.947Z,154.60
2018-07-06T07:17:12.981Z,148.90
2018-07-06T07:18:13.071Z,133.50
2018-07-06T07:19:12.990Z,150.30
2018-07-06T07:20:13.044Z,144.60
2018-07-06T07:21:13.027Z,143.90
2018-07-06T07:22:13.035Z,138.40
2018-07-06T07:23:13.128Z,149.10
2018-07-06T07:24:13.054Z,151.30
2018-07-06T07:25:13.060Z,160.00
2018-07-06T07:26:13.069Z,162.00
2018-07-06T07:27:13.078Z,171.80
2018-07-06T07:28:13.200Z,161.90
2018-07-06T07:29:13.101Z,156.30
2018-07-06T07:30:13.151Z,160.80
2018-07-06T07:31:13.141Z,163.00
2018-07-06T07:32:13.156Z,153.50
2018-07-06T07:33:13.266Z,156.80
2018-07-06T07:34:13.180Z,166.70
2018-07-06T07:35:13.195Z,157.00
2018-07-06T07:36:13.201Z,165.80
2018-07-06T07:37:13.204Z,155.10
2018-07-06T07:38:13.279Z,149.50
2018-07-06T07:39:13.234Z,162.20
2018-07-06T07:40:13.239Z,182.80
2018-07-06T07:41:13.247Z,184.20
2018-07-06T07:42:13.358Z,197.50
2018-07-06T07:43:13.298Z,207.90
2018-07-06T07:44:13.300Z,199.40
2018-07-06T07:45:13.307Z,204.50
2018-07-06T07:46:13.331Z,191.80
2018-07-06T07:47:13.441Z,169.70
2018-07-06T07:48:13.339Z,189.80
2018-07-06T07:49:13.349Z,193.90
2018-07-06T07:50:13.363Z,178.00
2018-07-06T07:51:13.381Z,203.80
2018-07-06T07:52:13.506Z,217.60
2018-07-06T07:53:13.397Z,198.50
2018-07-06T07:54:13.422Z,198.00
2018-07-06T07:55:13.444Z,208.50
2018-07-06T07:56:13.439Z,206.40
2018-07-06T07:57:13.567Z,195.70
2018-07-06T07:58:13.454Z,206.00
2018-07-06T07:59:13.471Z,193.80
2018-07-06T08:00:13.485Z,200.00
2018-07-06T08:01:13.543Z,184.70
2018-07-06T08:02:13.623Z,189.30
2018-07-06T08:03:13.527Z,195.00
2018-07-06T08:04:13.541Z,194.70
2018-07-06T08:05:13.561Z,200.10
2018-07-06T08:06:13.561Z,187.60
2018-07-06T08:07:13.764Z,177.70
2018-07-06T08:08:13.599Z,190.90
2018-07-06T08:09:13.609Z,203.20
2018-07-06T08:10:13.621Z,201.40
2018-07-06T08:11:13.625Z,214.10
2018-07-06T08:12:13.737Z,229.70
2018-07-06T08:13:13.651Z,205.80
2018-07-06T08:14:13.649Z,212.20
2018-07-06T08:15:13.676Z,213.00
2018-07-06T08:16:13.687Z,189.80
2018-07-06T08:17:13.801Z,178.50
2018-07-06T08:18:13.757Z,185.20
2018-07-06T08:19:13.715Z,179.70
2018-07-06T08:20:13.726Z,187.20
2018-07-06T08:21:13.746Z,191.60
2018-07-06T08:22:13.867Z,175.20
2018-07-06T08:23:13.758Z,180.90
2018-07-06T08:24:13.781Z,191.10
2018-07-06T08:25:13.787Z,201.20
2018-07-06T08:26:13.809Z,228.90
2018-07-06T08:27:13.808Z,221.20
2018-07-06T08:28:13.937Z,180.90
2018-07-06T08:29:13.836Z,189.40
2018-07-06T08:30:13.899Z,203.30
2018-07-06T08:31:13.854Z,193.10
2018-07-06T08:32:13.867Z,173.00
2018-07-06T08:33:14.052Z,179.70
2018-07-06T08:34:13.904Z,175.10
2018-07-06T08:35:13.933Z,152.30
2018-07-06T08:36:13.920Z,181.50
2018-07-06T08:37:13.950Z,156.60
2018-07-06T08:38:14.056Z,165.20
2018-07-06T08:39:13.965Z,181.30
2018-07-06T08:40:13.980Z,224.60
2018-07-06T08:41:13.985Z,192.90
2018-07-06T08:42:13.988Z,204.90
2018-07-06T08:43:14.150Z,350.30
2018-07-06T08:44:14.032Z,470.20
2018-07-06T08:45:14.046Z,447.40
2018-07-06T08:46:14.029Z,306.00
2018-07-06T08:47:14.062Z,304.00
2018-07-06T08:48:14.233Z,447.50
2018-07-06T08:49:14.071Z,352.50
2018-07-06T08:50:14.135Z,388.80
2018-07-06T08:51:14.111Z,309.20
2018-07-06T08:52:14.116Z,323.70
2018-07-06T08:53:14.275Z,311.50
2018-07-06T08:54:14.139Z,370.20
2018-07-06T08:55:14.161Z,348.60
2018-07-06T08:56:14.149Z,372.80
2018-07-06T08:57:14.169Z,434.00
2018-07-06T08:58:14.349Z,459.30
2018-07-06T08:59:14.190Z,465.80
2018-07-06T09:00:14.215Z,478.70
2018-07-06T09:01:14.206Z,443.00
2018-07-06T09:02:14.224Z,419.30
2018-07-06T09:03:14.336Z,355.20
2018-07-06T09:04:14.325Z,343.40
2018-07-06T09:05:14.284Z,393.60
2018-07-06T09:06:14.285Z,422.20
2018-07-06T09:07:14.293Z,450.30
2018-07-06T09:08:14.406Z,431.90
2018-07-06T09:09:14.419Z,457.10
2018-07-06T09:10:14.335Z,485.00
2018-07-06T09:11:14.338Z,524.20
2018-07-06T09:12:14.352Z,493.80
2018-07-06T09:13:14.454Z,407.30
2018-07-06T09:14:14.370Z,386.70
2018-07-06T09:15:14.386Z,317.10
2018-07-06T09:16:14.463Z,261.00
2018-07-06T09:17:14.415Z,266.00
2018-07-06T09:18:14.423Z,282.50
2018-07-06T09:19:14.589Z,380.10
2018-07-06T09:20:14.527Z,344.00
2018-07-06T09:21:14.470Z,352.40
2018-07-06T09:22:14.481Z,334.00
2018-07-06T09:23:14.478Z,297.40
2018-07-06T09:24:14.610Z,298.60
2018-07-06T09:25:14.590Z,305.70
2018-07-06T09:26:14.599Z,280.60
2018-07-06T09:27:14.537Z,274.40
2018-07-06T09:28:14.525Z,229.80
2018-07-06T09:29:14.545Z,244.20
2018-07-06T09:30:14.704Z,282.70
2018-07-06T09:31:14.562Z,354.50
2018-07-06T09:32:14.595Z,345.60
2018-07-06T09:33:14.588Z,318.20
2018-07-06T09:34:14.611Z,362.10
2018-07-06T09:35:14.717Z,295.90
2018-07-06T09:36:14.641Z,262.40
2018-07-06T09:37:14.646Z,236.60
2018-07-06T09:38:14.643Z,236.70
2018-07-06T09:39:14.660Z,271.70
2018-07-06T09:40:14.670Z,249.30
2018-07-06T09:41:14.806Z,259.40
2018-07-06T09:42:14.710Z,282.70
2018-07-06T09:43:14.724Z,263.80
2018-07-06T09:44:14.733Z,283.80
2018-07-06T09:45:14.744Z,315.40
2018-07-06T09:46:14.842Z,291.50
2018-07-06T09:47:14.775Z,263.10
2018-07-06T09:48:14.768Z,214.20
2018-07-06T09:49:14.795Z,200.90
2018-07-06T09:50:14.811Z,212.30
2018-07-06T09:51:14.959Z,226.10
2018-07-06T09:52:14.821Z,196.80
2018-07-06T09:53:14.825Z,216.90
2018-07-06T09:54:14.851Z,208.30
2018-07-06T09:55:14.864Z,216.50
2018-07-06T09:56:15.026Z,239.50
2018-07-06T09:57:14.892Z,215.70
2018-07-06T09:58:14.885Z,243.90
2018-07-06T09:59:14.895Z,262.30
2018-07-06T10:00:14.904Z,267.40
2018-07-06T10:01:15.097Z,234.30
2018-07-06T10:02:14.950Z,225.10
2018-07-06T10:03:14.949Z,196.30
2018-07-06T10:04:15.007Z,196.60
2018-07-06T10:05:14.974Z,207.90
2018-07-06T10:06:15.075Z,201.90
2018-07-06T10:07:15.012Z,198.00
2018-07-06T10:08:15.003Z,201.50
2018-07-06T10:09:15.029Z,193.90
2018-07-06T10:10:15.092Z,192.20
2018-07-06T10:11:15.147Z,193.60
2018-07-06T10:12:15.074Z,190.90
2018-07-06T10:13:15.077Z,188.90
2018-07-06T10:14:15.098Z,179.80
2018-07-06T10:15:15.103Z,187.10
2018-07-06T10:16:15.276Z,178.30
2018-07-06T10:17:15.123Z,180.10
2018-07-06T10:18:15.133Z,167.40
2018-07-06T10:19:15.149Z,168.40
2018-07-06T10:20:15.158Z,158.60
2018-07-06T10:21:15.328Z,170.80
2018-07-06T10:22:15.189Z,163.50
2018-07-06T10:23:15.196Z,169.90
2018-07-06T10:24:15.214Z,162.70
2018-07-06T10:25:15.214Z,163.40
2018-07-06T10:26:15.297Z,154.60
2018-07-06T10:27:15.278Z,153.90
2018-07-06T10:28:15.263Z,148.00
2018-07-06T10:29:15.284Z,149.80
2018-07-06T10:30:15.298Z,141.20
2018-07-06T10:31:15.459Z,139.50
2018-07-06T10:32:15.305Z,133.60
2018-07-06T10:33:15.365Z,130.40
2018-07-06T10:34:15.322Z,126.30
2018-07-06T10:35:15.355Z,136.10
2018-07-06T10:36:15.467Z,131.10
2018-07-06T10:37:15.361Z,130.40
2018-07-06T10:38:15.393Z,132.00
2018-07-06T10:39:15.405Z,125.60
2018-07-06T10:40:15.414Z,119.50
2018-07-06T10:41:15.518Z,116.80
2018-07-06T10:42:15.465Z,116.60
2018-07-06T10:43:15.457Z,117.60
2018-07-06T10:44:15.474Z,112.60
2018-07-06T10:45:15.468Z,104.60
2018-07-06T10:46:15.483Z,109.30
2018-07-06T10:47:15.657Z,97.90
2018-07-06T10:48:15.523Z,100.50
2018-07-06T10:49:15.528Z,101.30
2018-07-06T10:50:15.547Z,101.10
2018-07-06T10:51:15.561Z,102.60
2018-07-06T10:52:15.668Z,105.40
2018-07-06T10:53:15.595Z,103.30
2018-07-06T10:54:15.590Z,102.60
2018-07-06T10:55:15.616Z,96.10
2018-07-06T10:56:15.611Z,95.40
2018-07-06T10:57:15.732Z,95.20
2018-07-06T10:58:15.657Z,90.20
2018-07-06T10:59:15.682Z,86.50
2018-07-06T11:00:15.683Z,93.10
2018-07-06T11:01:15.696Z,87.50
2018-07-06T11:02:15.880Z,88.60
2018-07-06T11:03:15.719Z,87.40
2018-07-06T11:04:15.763Z,96.10
2018-07-06T11:05:15.755Z,94.00
2018-07-06T11:06:15.765Z,88.00
2018-07-06T11:07:15.884Z,96.40
2018-07-06T11:08:15.789Z,90.40
2018-07-06T11:09:15.810Z,90.40
2018-07-06T11:10:15.819Z,86.10
2018-07-06T11:11:15.819Z,92.30
2018-07-06T11:12:16.001Z,82.20
2018-07-06T11:13:15.854Z,92.20
2018-07-06T11:14:15.888Z,100.20
2018-07-06T11:15:15.915Z,87.50
2018-07-06T11:16:16.026Z,92.20
2018-07-06T11:17:16.019Z,97.40
2018-07-06T11:18:15.921Z,82.30
2018-07-06T11:19:15.950Z,81.40
2018-07-06T11:20:15.972Z,93.70
2018-07-06T11:21:15.976Z,90.20
2018-07-06T11:22:16.091Z,96.10
2018-07-06T11:23:16.020Z,94.30
2018-07-06T11:24:16.015Z,85.20
2018-07-06T11:25:16.059Z,87.70
2018-07-06T11:26:16.060Z,87.50
2018-07-06T11:27:16.180Z,87.00
2018-07-06T11:28:16.095Z,94.30
2018-07-06T11:29:16.088Z,92.10
2018-07-06T11:30:16.115Z,93.90
2018-07-06T11:31:16.115Z,90.40
2018-07-06T11:32:16.339Z,85.10
2018-07-06T11:33:16.173Z,85.60
2018-07-06T11:34:16.164Z,84.80
2018-07-06T11:35:16.187Z,78.20
2018-07-06T11:36:16.197Z,90.30
2018-07-06T11:37:16.361Z,78.30
2018-07-06T11:38:16.417Z,78.40
2018-07-06T11:39:16.249Z,78.50
2018-07-06T11:40:16.275Z,78.40
2018-07-06T11:41:16.276Z,74.20
2018-07-06T11:42:16.397Z,84.70
2018-07-06T11:43:16.318Z,84.30
2018-07-06T11:44:16.327Z,76.60
2018-07-06T11:45:16.421Z,78.70
2018-07-06T11:46:16.375Z,89.80
2018-07-06T11:47:16.376Z,86.50
2018-07-06T11:48:16.508Z,81.60
2018-07-06T11:49:16.400Z,80.10
2018-07-06T11:50:16.470Z,80.60
2018-07-06T11:51:16.453Z,80.00
2018-07-06T11:52:16.458Z,75.10
2018-07-06T11:53:16.589Z,91.80
2018-07-06T11:54:16.490Z,75.30
2018-07-06T11:55:16.514Z,82.00
2018-07-06T11:56:16.512Z,75.10
2018-07-06T11:57:16.549Z,82.50
2018-07-06T11:58:16.690Z,73.60
2018-07-06T11:59:16.576Z,83.00
2018-07-06T12:00:16.578Z,79.20
2018-07-06T12:01:16.620Z,76.20
2018-07-06T12:02:16.621Z,80.60
2018-07-06T12:03:16.741Z,71.20
2018-07-06T12:04:16.780Z,79.50
2018-07-06T12:05:16.684Z,77.40
2018-07-06T12:06:16.706Z,72.00
2018-07-06T12:07:16.703Z,71.40
2018-07-06T12:08:16.837Z,76.80
2018-07-06T12:09:16.748Z,76.40
2018-07-06T12:10:16.760Z,73.70
2018-07-06T12:11:16.783Z,71.10
2018-07-06T12:12:16.784Z,74.10
2018-07-06T12:13:16.919Z,82.50
2018-07-06T12:14:16.838Z,71.50
2018-07-06T12:15:16.843Z,76.70
2018-07-06T12:16:16.871Z,74.90
2018-07-06T12:17:16.884Z,71.40
2018-07-06T12:18:17.049Z,77.20
2018-07-06T12:19:16.926Z,73.10
2018-07-06T12:20:16.931Z,71.60
2018-07-06T12:21:17.000Z,75.90
2018-07-06T12:22:16.976Z,84.70
2018-07-06T12:23:17.098Z,78.10
2018-07-06T12:24:16.991Z,71.00
2018-07-06T12:25:17.016Z,73.70
2018-07-06T12:26:17.026Z,73.20
2018-07-06T12:27:17.049Z,75.90
2018-07-06T12:28:17.173Z,77.00
2018-07-06T12:29:17.178Z,77.30
2018-07-06T12:30:17.109Z,71.10
2018-07-06T12:31:17.143Z,72.70
2018-07-06T12:32:17.158Z,71.20
2018-07-06T12:33:17.385Z,69.20
2018-07-06T12:34:17.189Z,71.60
2018-07-06T12:35:17.205Z,73.50